createdAt,value
2023-03-10T00:01:18.863Z,5.30
2023-03-10T00:03:46.345Z,5.00
2023-03-10T00:06:16.819Z,5.20
2023-03-10T00:08:44.582Z,5.10
2023-03-10T00:11:12.272Z,5.10
2023-03-10T00:13:39.907Z,5.20
2023-03-10T00:16:07.640Z,5.10
2023-03-10T00:18:35.073Z,5.20
2023-03-10T00:21:01.887Z,5.20
2023-03-10T00:23:29.125Z,5.20
2023-03-10T00:26:00.860Z,5.00
2023-03-10T00:28:28.499Z,5.00
2023-03-10T00:31:05.015Z,5.10
2023-03-10T00:33:33.244Z,5.30
2023-03-10T00:36:15.787Z,5.30
2023-03-10T00:38:43.588Z,5.50
2023-03-10T00:41:17.091Z,5.50
2023-03-10T00:43:44.268Z,5.50
2023-03-10T00:46:11.421Z,5.30
2023-03-10T00:48:39.108Z,5.30
2023-03-10T00:51:06.802Z,5.30
2023-03-10T00:53:38.828Z,5.20
2023-03-10T00:56:08.749Z,5.20
2023-03-10T00:58:36.014Z,5.10
2023-03-10T01:01:04.081Z,4.90
2023-03-10T01:03:31.585Z,4.90
2023-03-10T01:05:58.348Z,4.80
2023-03-10T01:08:25.182Z,4.70
2023-03-10T01:10:52.479Z,4.70
2023-03-10T01:13:19.770Z,4.60
2023-03-10T01:15:51.431Z,4.60
2023-03-10T01:18:19.394Z,4.60
2023-03-10T01:20:46.527Z,4.70
2023-03-10T01:23:24.734Z,4.70
2023-03-10T01:25:52.750Z,4.80
2023-03-10T01:28:20.705Z,4.70
2023-03-10T01:30:49.075Z,4.60
2023-03-10T01:33:17.650Z,4.40
2023-03-10T01:35:45.480Z,4.40
2023-03-10T01:38:12.408Z,4.40
2023-03-10T01:40:40.312Z,4.50
2023-03-10T01:43:32.045Z,4.50
2023-03-10T01:46:01.675Z,4.50
2023-03-10T01:48:35.934Z,4.50
2023-03-10T01:51:03.401Z,4.60
2023-03-10T01:53:30.230Z,4.60
2023-03-10T01:56:03.143Z,4.60
2023-03-10T01:58:37.747Z,4.70
2023-03-10T02:01:06.028Z,4.70
2023-03-10T02:03:54.679Z,4.70
2023-03-10T02:06:23.673Z,4.80
2023-03-10T02:08:54.098Z,4.90
2023-03-10T02:11:21.585Z,5.00
2023-03-10T02:13:48.911Z,5.10
2023-03-10T02:16:17.500Z,5.30
2023-03-10T02:18:46.950Z,5.30
2023-03-10T02:21:32.371Z,5.50
2023-03-10T02:24:35.126Z,5.50
2023-03-10T02:27:25.239Z,5.60
2023-03-10T02:30:04.836Z,5.70
2023-03-10T02:32:36.126Z,5.70
2023-03-10T02:35:04.089Z,5.80
2023-03-10T02:37:33.936Z,5.90
2023-03-10T02:40:01.255Z,5.90
2023-03-10T02:42:34.535Z,6.00
2023-03-10T02:45:02.692Z,6.00
2023-03-10T02:47:29.728Z,6.10
2023-03-10T02:49:56.497Z,6.10
2023-03-10T02:52:44.020Z,6.20
2023-03-10T02:55:18.097Z,6.40
2023-03-10T02:57:45.342Z,6.50
2023-03-10T03:00:12.759Z,6.60
2023-03-10T03:02:40.216Z,6.70
2023-03-10T03:05:08.013Z,6.90
2023-03-10T03:07:34.773Z,6.90
2023-03-10T03:10:02.410Z,6.90
2023-03-10T03:12:29.150Z,7.10
2023-03-10T03:14:56.371Z,7.00
2023-03-10T03:17:23.427Z,7.00
2023-03-10T03:19:50.237Z,7.10
2023-03-10T03:22:17.398Z,7.20
2023-03-10T03:24:44.931Z,7.20
2023-03-10T03:27:11.674Z,7.20
2023-03-10T03:29:38.841Z,7.20
2023-03-10T03:32:06.143Z,7.30
2023-03-10T03:34:32.992Z,7.20
2023-03-10T03:37:00.191Z,7.20
2023-03-10T03:39:27.112Z,7.20
2023-03-10T03:41:57.578Z,7.30
2023-03-10T03:44:24.758Z,7.30
2023-03-10T03:46:51.535Z,7.40
2023-03-10T03:49:18.513Z,7.60
2023-03-10T03:51:46.129Z,7.60
2023-03-10T03:54:12.988Z,7.70
2023-03-10T03:56:40.086Z,7.90
2023-03-10T03:59:06.880Z,7.70
2023-03-10T04:01:33.630Z,7.70
2023-03-10T04:04:00.982Z,7.70
2023-03-10T04:06:27.778Z,7.90
2023-03-10T04:08:56.113Z,7.90
2023-03-10T04:11:23.277Z,7.80
2023-03-10T04:13:50.078Z,8.00
2023-03-10T04:16:16.956Z,8.00
2023-03-10T04:18:45.109Z,7.90
2023-03-10T04:21:11.884Z,7.90
2023-03-10T04:23:42.478Z,7.90
2023-03-10T04:26:10.017Z,8.10
2023-03-10T04:28:37.898Z,8.00
2023-03-10T04:31:04.967Z,8.20
2023-03-10T04:33:32.202Z,8.10
2023-03-10T04:36:04.287Z,8.20
2023-03-10T04:38:31.828Z,8.10
2023-03-10T04:40:58.973Z,8.10
2023-03-10T04:43:26.051Z,8.30
2023-03-10T04:45:53.031Z,8.30
2023-03-10T04:48:20.347Z,8.30
2023-03-10T04:50:59.819Z,8.40
2023-03-10T04:53:27.405Z,8.30
2023-03-10T04:55:54.203Z,8.20
2023-03-10T04:58:22.455Z,8.10
2023-03-10T05:01:02.461Z,8.10
2023-03-10T05:03:30.572Z,8.30
2023-03-10T05:05:57.831Z,8.30
2023-03-10T05:08:25.009Z,8.10
2023-03-10T05:10:51.736Z,8.20
2023-03-10T05:13:18.598Z,8.20
2023-03-10T05:15:45.526Z,8.20
2023-03-10T05:18:12.630Z,8.30
2023-03-10T05:20:39.884Z,8.30
2023-03-10T05:23:06.641Z,8.30
2023-03-10T05:25:34.167Z,8.40
2023-03-10T05:28:00.976Z,8.50
2023-03-10T05:30:27.762Z,8.50
2023-03-10T05:32:54.950Z,8.50
2023-03-10T05:35:21.993Z,8.50
2023-03-10T05:37:48.760Z,8.50
2023-03-10T05:40:19.889Z,8.40
2023-03-10T05:42:48.173Z,8.40
2023-03-10T05:45:15.632Z,8.40
2023-03-10T05:47:43.833Z,8.60
2023-03-10T05:50:12.199Z,8.70
2023-03-10T05:52:40.409Z,8.50
2023-03-10T05:55:09.002Z,8.40
2023-03-10T05:57:35.812Z,8.50
2023-03-10T06:00:03.022Z,8.60
2023-03-10T06:02:30.154Z,8.70
2023-03-10T06:04:56.939Z,8.60
2023-03-10T06:07:24.114Z,8.60
2023-03-10T06:09:54.005Z,8.80
2023-03-10T06:12:21.447Z,8.80
2023-03-10T06:14:48.673Z,8.80
2023-03-10T06:17:16.381Z,8.90
2023-03-10T06:19:44.704Z,9.00
2023-03-10T06:22:11.848Z,9.10
2023-03-10T06:24:38.677Z,9.20
2023-03-10T06:27:05.808Z,9.20
2023-03-10T06:29:33.535Z,9.20
2023-03-10T06:32:01.435Z,9.30
2023-03-10T06:34:28.678Z,9.40
2023-03-10T06:36:56.139Z,9.40
2023-03-10T06:39:23.671Z,9.30
2023-03-10T06:41:51.218Z,9.40
2023-03-10T06:44:19.349Z,9.10
2023-03-10T06:46:46.984Z,9.10
2023-03-10T06:49:14.568Z,9.10
2023-03-10T06:51:42.796Z,9.00
2023-03-10T06:54:09.929Z,9.00
2023-03-10T06:56:36.819Z,9.00
2023-03-10T06:59:04.257Z,9.30
2023-03-10T07:01:33.102Z,9.30
2023-03-10T07:04:01.342Z,9.60
2023-03-10T07:06:28.426Z,9.70
2023-03-10T07:08:55.827Z,10.00
2023-03-10T07:11:25.011Z,10.30
2023-03-10T07:13:52.053Z,10.20
2023-03-10T07:16:19.190Z,10.30
2023-03-10T07:18:46.414Z,10.20
2023-03-10T07:21:17.259Z,10.30
2023-03-10T07:23:44.829Z,10.50
2023-03-10T07:26:14.667Z,10.50
2023-03-10T07:28:42.118Z,10.40
2023-03-10T07:31:11.646Z,10.60
2023-03-10T07:33:39.161Z,10.70
2023-03-10T07:36:07.780Z,10.80
2023-03-10T07:38:36.657Z,10.80
2023-03-10T07:41:12.441Z,10.80
2023-03-10T07:43:41.622Z,11.00
2023-03-10T07:46:11.371Z,11.30
2023-03-10T07:48:38.735Z,11.40
2023-03-10T07:51:06.350Z,11.40
2023-03-10T07:53:33.912Z,11.70
2023-03-10T07:56:13.288Z,11.80
2023-03-10T07:58:41.804Z,12.00
2023-03-10T08:01:14.481Z,12.00
2023-03-10T08:03:41.392Z,11.90
2023-03-10T08:06:12.467Z,11.90
2023-03-10T08:08:39.457Z,11.60
2023-03-10T08:11:10.848Z,11.70
2023-03-10T08:13:38.415Z,11.80
2023-03-10T08:16:06.783Z,11.70
2023-03-10T08:18:34.144Z,11.60
2023-03-10T08:21:05.924Z,11.40
2023-03-10T08:23:35.881Z,11.10
2023-03-10T08:26:08.049Z,10.90
2023-03-10T08:28:37.595Z,11.10
2023-03-10T08:31:16.415Z,11.30
2023-03-10T08:33:43.777Z,11.40
2023-03-10T08:36:14.822Z,11.50
2023-03-10T08:38:42.616Z,11.60
2023-03-10T08:41:28.390Z,11.80
2023-03-10T08:43:56.797Z,11.90
2023-03-10T08:46:25.150Z,11.90
2023-03-10T08:48:52.619Z,12.00
2023-03-10T08:51:20.214Z,12.00
2023-03-10T08:53:49.412Z,11.90
2023-03-10T08:56:18.698Z,11.90
2023-03-10T08:58:45.796Z,11.90
2023-03-10T09:01:14.252Z,12.00
2023-03-10T09:03:43.350Z,12.00
2023-03-10T09:06:10.260Z,12.30
2023-03-10T09:08:37.099Z,12.60
2023-03-10T09:11:04.413Z,12.80
2023-03-10T09:13:31.228Z,12.90
2023-03-10T09:15:58.501Z,12.90
2023-03-10T09:18:25.577Z,13.10
2023-03-10T09:20:52.517Z,13.00
2023-03-10T09:23:20.222Z,13.00
2023-03-10T09:25:47.143Z,12.90
2023-03-10T09:28:15.020Z,13.00
2023-03-10T09:30:43.240Z,13.00
2023-03-10T09:33:19.240Z,13.10
2023-03-10T09:35:53.004Z,13.20
2023-03-10T09:38:25.479Z,12.90
2023-03-10T09:41:38.366Z,12.80
2023-03-10T09:44:08.528Z,12.60
2023-03-10T09:46:35.322Z,12.60
2023-03-10T09:49:25.550Z,12.50
2023-03-10T09:51:52.496Z,12.40
2023-03-10T09:54:28.336Z,12.40
2023-03-10T09:56:57.842Z,12.30
2023-03-10T09:59:46.992Z,12.10
2023-03-10T10:02:21.134Z,12.40
2023-03-10T10:04:53.984Z,12.60
2023-03-10T10:07:23.056Z,12.80
2023-03-10T10:10:18.657Z,12.90
2023-03-10T10:12:52.319Z,12.80
2023-03-10T10:15:23.669Z,12.80
2023-03-10T10:18:18.401Z,12.90
2023-03-10T10:20:50.551Z,13.20
2023-03-10T10:23:28.781Z,13.60
2023-03-10T10:25:55.540Z,13.60
2023-03-10T10:28:33.308Z,13.90
2023-03-10T10:31:17.967Z,13.90
2023-03-10T10:34:21.824Z,13.90
2023-03-10T10:36:55.194Z,13.90
2023-03-10T10:39:28.327Z,14.00
2023-03-10T10:42:11.702Z,14.20
2023-03-10T10:44:43.981Z,14.30
2023-03-10T10:47:50.002Z,14.50
2023-03-10T10:50:21.874Z,14.40
2023-03-10T10:52:52.584Z,14.40
2023-03-10T10:55:35.884Z,14.50
2023-03-10T10:58:06.825Z,14.30
2023-03-10T11:00:37.424Z,14.30
2023-03-10T11:03:25.769Z,13.90
2023-03-10T11:05:54.086Z,13.70
2023-03-10T11:08:35.456Z,13.70
2023-03-10T11:11:08.418Z,14.00
2023-03-10T11:13:58.591Z,14.30
2023-03-10T11:16:50.901Z,14.50
2023-03-10T11:19:44.131Z,14.70
2023-03-10T11:22:57.747Z,14.70
2023-03-10T11:25:27.493Z,14.70
2023-03-10T11:28:28.179Z,14.70
2023-03-10T11:31:33.927Z,14.70
2023-03-10T11:34:22.413Z,14.30
2023-03-10T11:37:04.853Z,14.40
2023-03-10T11:39:59.307Z,14.40
2023-03-10T11:42:50.560Z,14.30
2023-03-10T11:45:35.256Z,14.20
2023-03-10T11:48:41.641Z,14.10
2023-03-10T11:51:34.803Z,14.10
2023-03-10T11:54:10.853Z,13.90
2023-03-10T11:56:39.160Z,14.00
2023-03-10T11:59:20.395Z,13.90
2023-03-10T12:02:12.584Z,14.30
2023-03-10T12:04:49.194Z,14.40
2023-03-10T12:07:32.100Z,14.40
2023-03-10T12:10:12.452Z,14.50
2023-03-10T12:12:44.930Z,14.60
2023-03-10T12:15:23.749Z,14.80
2023-03-10T12:17:53.531Z,14.90
2023-03-10T12:20:20.643Z,15.10
2023-03-10T12:23:21.070Z,15.30
2023-03-10T12:25:49.536Z,15.40
2023-03-10T12:28:16.357Z,15.50
2023-03-10T12:30:45.758Z,16.00
2023-03-10T12:33:32.760Z,16.20
2023-03-10T12:36:09.920Z,16.70
2023-03-10T12:39:02.279Z,16.80
2023-03-10T12:41:29.434Z,16.40
2023-03-10T12:43:59.191Z,15.80
2023-03-10T12:46:40.477Z,15.80
2023-03-10T12:49:22.808Z,15.70
2023-03-10T12:52:08.080Z,15.80
2023-03-10T12:54:47.839Z,16.00
2023-03-10T12:57:33.561Z,15.90
2023-03-10T13:00:05.583Z,15.90
2023-03-10T13:03:09.056Z,15.80
2023-03-10T13:05:41.774Z,15.90
2023-03-10T13:08:31.735Z,16.10
2023-03-10T13:10:59.690Z,16.30
2023-03-10T13:13:35.098Z,16.20
2023-03-10T13:16:06.399Z,16.30
2023-03-10T13:18:35.154Z,16.20
2023-03-10T13:21:02.685Z,16.40
2023-03-10T13:23:35.791Z,16.40
2023-03-10T13:26:08.022Z,16.30
2023-03-10T13:28:35.699Z,16.30
2023-03-10T13:31:19.471Z,16.00
2023-03-10T13:33:53.184Z,15.90
2023-03-10T13:36:32.100Z,15.60
2023-03-10T13:39:05.269Z,15.80
2023-03-10T13:41:37.509Z,15.80
2023-03-10T13:44:04.990Z,15.70
2023-03-10T13:46:33.518Z,15.80
2023-03-10T13:49:06.952Z,15.70
2023-03-10T13:51:36.905Z,15.80
2023-03-10T13:54:22.890Z,15.90
2023-03-10T13:57:10.317Z,15.90
2023-03-10T13:59:37.654Z,16.20
2023-03-10T14:02:12.411Z,16.00
2023-03-10T14:04:53.860Z,16.10
2023-03-10T14:07:21.612Z,16.10
2023-03-10T14:10:10.761Z,16.10
2023-03-10T14:12:41.809Z,15.80
2023-03-10T14:15:15.014Z,15.60
2023-03-10T14:17:43.606Z,15.70
2023-03-10T14:20:27.403Z,15.80
2023-03-10T14:22:54.330Z,15.70
2023-03-10T14:25:23.179Z,15.80
2023-03-10T14:30:43.940Z,15.80
2023-03-10T14:33:13.866Z,15.80
2023-03-10T14:35:41.732Z,15.70
2023-03-10T14:38:08.778Z,15.60
2023-03-10T14:40:40.473Z,15.60
2023-03-10T14:43:07.331Z,15.50
2023-03-10T14:45:38.353Z,15.40
2023-03-10T14:48:19.147Z,15.70
2023-03-10T14:50:48.070Z,15.70
2023-03-10T14:53:17.558Z,15.50
2023-03-10T14:55:47.757Z,15.40
2023-03-10T14:58:22.121Z,15.20
2023-03-10T15:00:50.299Z,15.10
2023-03-10T15:03:18.026Z,14.90
2023-03-10T15:05:48.970Z,14.90
2023-03-10T15:08:17.440Z,15.10
2023-03-10T15:10:48.216Z,15.00
2023-03-10T15:13:18.377Z,15.00
2023-03-10T15:15:46.662Z,15.10
2023-03-10T15:18:19.357Z,15.20
2023-03-10T15:20:46.130Z,15.10
2023-03-10T15:23:16.499Z,15.00
2023-03-10T15:25:45.944Z,14.90
2023-03-10T15:28:13.519Z,14.70
2023-03-10T15:30:40.717Z,14.50
2023-03-10T15:33:07.503Z,14.40
2023-03-10T15:35:35.031Z,14.20
2023-03-10T15:38:02.214Z,14.30
2023-03-10T15:40:31.662Z,14.40
2023-03-10T15:43:00.371Z,14.50
2023-03-10T15:45:29.538Z,14.40
2023-03-10T15:47:56.792Z,14.00
2023-03-10T15:50:31.506Z,13.90
2023-03-10T15:52:59.869Z,13.70
2023-03-10T15:55:27.794Z,13.40
2023-03-10T15:57:56.115Z,13.40
2023-03-10T16:00:25.076Z,13.30
2023-03-10T16:02:51.886Z,13.40
2023-03-10T16:05:19.232Z,13.40
2023-03-10T16:07:46.614Z,13.40
2023-03-10T16:10:16.727Z,13.60
2023-03-10T16:12:43.965Z,13.80
2023-03-10T16:15:12.233Z,13.80
2023-03-10T16:17:39.546Z,13.90
2023-03-10T16:20:12.470Z,14.00
2023-03-10T16:22:40.985Z,13.50
2023-03-10T16:25:16.370Z,13.40
2023-03-10T16:27:45.045Z,13.30
2023-03-10T16:30:18.070Z,13.40
2023-03-10T16:32:49.589Z,13.30
2023-03-10T16:35:17.461Z,13.50
2023-03-10T16:37:44.534Z,13.50
2023-03-10T16:40:12.490Z,13.60
2023-03-10T16:42:43.691Z,13.40
2023-03-10T16:45:11.231Z,13.50
2023-03-10T16:47:38.047Z,13.40
2023-03-10T16:50:05.247Z,13.30
2023-03-10T16:52:31.970Z,13.40
2023-03-10T16:55:01.494Z,13.70
2023-03-10T16:57:28.393Z,13.60
2023-03-10T16:59:55.152Z,13.70
2023-03-10T17:02:21.887Z,13.60
2023-03-10T17:04:49.568Z,13.60
2023-03-10T17:07:16.415Z,13.60
2023-03-10T17:09:43.620Z,13.50
2023-03-10T17:12:10.735Z,13.60
2023-03-10T17:14:37.468Z,13.50
2023-03-10T17:17:06.545Z,13.40
2023-03-10T17:19:35.003Z,13.40
2023-03-10T17:22:01.771Z,13.40
2023-03-10T17:24:29.074Z,13.50
2023-03-10T17:26:55.844Z,13.40
2023-03-10T17:29:22.651Z,13.00
2023-03-10T17:31:52.076Z,12.90
2023-03-10T17:34:19.650Z,13.00
2023-03-10T17:36:49.716Z,13.00
2023-03-10T17:39:22.211Z,12.80
2023-03-10T17:41:50.164Z,12.70
2023-03-10T17:44:16.993Z,12.40
2023-03-10T17:46:44.366Z,12.20
2023-03-10T17:49:15.555Z,12.20
2023-03-10T17:51:44.370Z,12.10
2023-03-10T17:54:17.984Z,11.90
2023-03-10T17:56:45.190Z,11.90
2023-03-10T17:59:14.752Z,11.80
2023-03-10T18:01:43.630Z,11.80
2023-03-10T18:04:11.221Z,11.80
2023-03-10T18:06:38.104Z,11.70
2023-03-10T18:09:07.906Z,11.70
2023-03-10T18:11:35.145Z,11.80
2023-03-10T18:14:03.812Z,11.70
2023-03-10T18:16:36.386Z,11.70
2023-03-10T18:19:04.450Z,11.50
2023-03-10T18:21:31.411Z,11.50
2023-03-10T18:24:02.139Z,11.40
2023-03-10T18:26:30.886Z,11.50
2023-03-10T18:28:58.826Z,11.40
2023-03-10T18:31:32.532Z,11.10
2023-03-10T18:34:00.152Z,10.90
2023-03-10T18:36:29.546Z,10.70
2023-03-10T18:38:56.936Z,10.50
2023-03-10T18:41:26.222Z,10.40
2023-03-10T18:43:54.074Z,10.30
2023-03-10T18:46:21.382Z,10.30
2023-03-10T18:48:49.154Z,10.20
2023-03-10T18:51:15.996Z,10.20
2023-03-10T18:53:43.236Z,10.20
2023-03-10T18:56:10.388Z,10.10
2023-03-10T18:58:37.727Z,10.10
2023-03-10T19:01:10.888Z,9.90
2023-03-10T19:03:38.153Z,9.80
2023-03-10T19:06:05.915Z,9.80
2023-03-10T19:08:35.218Z,9.70
2023-03-10T19:11:02.439Z,9.60
2023-03-10T19:13:30.451Z,9.60
2023-03-10T19:15:57.643Z,9.60
2023-03-10T19:18:25.418Z,9.60
2023-03-10T19:20:58.668Z,9.60
2023-03-10T19:23:25.811Z,9.50
2023-03-10T19:25:52.910Z,9.60
2023-03-10T19:28:19.823Z,9.60
2023-03-10T19:30:47.017Z,9.70
2023-03-10T19:33:15.191Z,9.90
2023-03-10T19:35:42.446Z,9.90
2023-03-10T19:38:09.460Z,9.80
2023-03-10T19:40:37.266Z,9.80
2023-03-10T19:43:04.502Z,9.80
2023-03-10T19:45:31.438Z,9.90
2023-03-10T19:47:58.719Z,9.90
2023-03-10T19:50:26.307Z,10.00
2023-03-10T19:52:53.618Z,9.70
2023-03-10T19:55:23.443Z,9.60
2023-03-10T19:57:52.752Z,9.70
2023-03-10T20:00:25.511Z,9.60
2023-03-10T20:02:54.455Z,9.60
2023-03-10T20:05:22.561Z,9.70
2023-03-10T20:07:49.308Z,9.80
2023-03-10T20:10:18.171Z,9.60
2023-03-10T20:12:47.125Z,9.60
2023-03-10T20:15:14.453Z,9.60
2023-03-10T20:17:41.270Z,9.60
2023-03-10T20:20:12.747Z,9.60
2023-03-10T20:22:44.002Z,9.40
2023-03-10T20:25:13.337Z,9.30
2023-03-10T20:27:40.651Z,9.30
2023-03-10T20:30:09.972Z,9.50
2023-03-10T20:32:37.261Z,9.80
2023-03-10T20:35:04.967Z,9.80
2023-03-10T20:37:34.191Z,9.80
2023-03-10T20:40:01.402Z,9.90
2023-03-10T20:42:28.144Z,9.80
2023-03-10T20:44:55.262Z,10.00
2023-03-10T20:47:22.046Z,10.00
2023-03-10T20:49:48.858Z,10.00
2023-03-10T20:52:15.616Z,9.90
2023-03-10T20:54:42.827Z,10.10
2023-03-10T20:57:09.542Z,9.80
2023-03-10T20:59:37.077Z,9.80
2023-03-10T21:02:06.045Z,9.90
2023-03-10T21:04:33.109Z,10.00
2023-03-10T21:07:00.355Z,10.10
2023-03-10T21:09:27.108Z,10.00
2023-03-10T21:11:54.289Z,10.10
2023-03-10T21:14:21.026Z,10.10
2023-03-10T21:16:48.326Z,10.10
2023-03-10T21:19:15.478Z,10.00
2023-03-10T21:21:42.905Z,10.00
2023-03-10T21:24:10.094Z,10.00
2023-03-10T21:26:36.828Z,10.10
2023-03-10T21:29:04.610Z,10.00
2023-03-10T21:31:31.334Z,10.00
2023-03-10T21:33:58.529Z,9.80
2023-03-10T21:36:25.358Z,10.00
2023-03-10T21:38:52.751Z,10.00
2023-03-10T21:41:22.520Z,10.10
2023-03-10T21:43:50.217Z,10.10
2023-03-10T21:46:17.343Z,10.20
2023-03-10T21:48:44.381Z,10.20
2023-03-10T21:51:16.920Z,10.20
2023-03-10T21:53:44.185Z,10.30
2023-03-10T21:56:11.970Z,10.10
2023-03-10T21:58:39.129Z,10.30
2023-03-10T22:01:07.205Z,10.40
2023-03-10T22:03:35.232Z,10.30
2023-03-10T22:06:04.815Z,10.30
2023-03-10T22:08:33.483Z,10.30
2023-03-10T22:11:01.264Z,10.30
2023-03-10T22:13:28.541Z,10.20
2023-03-10T22:15:55.346Z,10.10
2023-03-10T22:18:22.457Z,10.00
2023-03-10T22:20:49.262Z,10.10
2023-03-10T22:23:16.308Z,9.90
2023-03-10T22:25:43.567Z,9.90
2023-03-10T22:28:10.389Z,9.80
2023-03-10T22:30:39.418Z,9.80
2023-03-10T22:33:09.420Z,9.70
2023-03-10T22:35:37.688Z,9.70
2023-03-10T22:38:07.090Z,9.80
2023-03-10T22:40:34.392Z,9.90
2023-03-10T22:43:01.119Z,9.90
2023-03-10T22:45:32.132Z,9.90
2023-03-10T22:48:01.762Z,10.00
2023-03-10T22:50:40.551Z,10.10
2023-03-10T22:53:17.637Z,10.00
2023-03-10T22:55:47.093Z,10.00
2023-03-10T22:58:14.394Z,10.20
2023-03-10T23:00:44.370Z,9.80
2023-03-10T23:03:13.696Z,9.80
2023-03-10T23:05:41.257Z,9.80
2023-03-10T23:08:08.649Z,9.70
2023-03-10T23:10:37.627Z,9.70
2023-03-10T23:13:08.303Z,9.80
2023-03-10T23:15:37.472Z,9.90
2023-03-10T23:18:06.747Z,9.70
2023-03-10T23:20:42.919Z,9.80
2023-03-10T23:23:15.289Z,9.70
2023-03-10T23:25:46.814Z,9.90
2023-03-10T23:28:15.309Z,9.60
2023-03-10T23:30:44.370Z,9.70
2023-03-10T23:33:14.273Z,9.80
2023-03-10T23:35:42.012Z,9.80
2023-03-10T23:38:09.269Z,9.80
2023-03-10T23:40:36.842Z,9.80
2023-03-10T23:43:06.733Z,9.80
2023-03-10T23:45:35.268Z,9.80
2023-03-10T23:48:02.682Z,9.70
2023-03-10T23:50:36.301Z,9.70
2023-03-10T23:53:05.423Z,9.60
2023-03-10T23:55:35.221Z,9.70
2023-03-10T23:58:03.494Z,9.70
